createdAt,value
2022-07-30T00:02:09.940Z,65.91
2022-07-30T00:04:37.645Z,67.39
2022-07-30T00:07:05.465Z,65.96
2022-07-30T00:09:34.299Z,66.58
2022-07-30T00:12:02.261Z,66.52
2022-07-30T00:14:30.692Z,66.26
2022-07-30T00:16:58.599Z,66.64
2022-07-30T00:19:28.100Z,66.34
2022-07-30T00:21:55.892Z,66.51
2022-07-30T00:24:24.158Z,66.21
2022-07-30T00:26:52.296Z,66.31
2022-07-30T00:29:20.121Z,66.21
2022-07-30T00:31:47.905Z,66.22
2022-07-30T00:34:15.657Z,67.51
2022-07-30T00:36:44.729Z,66.30
2022-07-30T00:39:12.583Z,67.26
2022-07-30T00:41:54.233Z,66.21
2022-07-30T00:44:21.972Z,67.93
2022-07-30T00:46:49.745Z,67.62
2022-07-30T00:49:17.646Z,66.78
2022-07-30T00:51:46.826Z,65.97
2022-07-30T00:54:15.397Z,66.74
2022-07-30T00:56:43.463Z,66.90
2022-07-30T00:59:11.349Z,66.61
2022-07-30T01:01:39.099Z,66.09
2022-07-30T01:04:11.346Z,66.16
2022-07-30T01:06:39.584Z,66.15
2022-07-30T01:09:08.782Z,66.23
2022-07-30T01:11:38.986Z,67.37
2022-07-30T01:14:07.539Z,67.85
2022-07-30T01:16:35.669Z,68.02
2022-07-30T01:19:24.822Z,68.68
2022-07-30T01:21:58.653Z,68.94
2022-07-30T01:24:32.070Z,68.08
2022-07-30T01:27:03.197Z,66.95
2022-07-30T01:29:33.307Z,68.02
2022-07-30T01:32:03.624Z,67.62
2022-07-30T01:34:33.553Z,68.37
2022-07-30T01:37:03.448Z,66.98
2022-07-30T01:39:31.585Z,67.55
2022-07-30T01:42:05.198Z,66.76
2022-07-30T01:44:33.561Z,66.25
2022-07-30T01:47:03.521Z,66.87
2022-07-30T01:49:31.980Z,66.64
2022-07-30T01:52:01.032Z,65.55
2022-07-30T01:54:30.163Z,65.78
2022-07-30T01:57:01.467Z,65.75
2022-07-30T01:59:31.511Z,65.14
2022-07-30T02:01:59.636Z,65.50
2022-07-30T02:04:28.145Z,65.73
2022-07-30T02:07:01.327Z,65.94
2022-07-30T02:09:32.392Z,67.21
2022-07-30T02:12:20.802Z,66.07
2022-07-30T02:14:50.953Z,66.87
2022-07-30T02:17:26.594Z,65.91
2022-07-30T02:19:58.825Z,66.27
2022-07-30T02:22:29.914Z,67.84
2022-07-30T02:24:59.656Z,68.19
2022-07-30T02:27:32.003Z,66.72
2022-07-30T02:30:02.952Z,66.60
2022-07-30T02:32:37.229Z,67.44
2022-07-30T02:35:10.530Z,66.69
2022-07-30T02:37:43.987Z,66.89
2022-07-30T02:40:17.903Z,66.15
2022-07-30T02:42:48.236Z,66.63
2022-07-30T02:45:17.663Z,67.71
2022-07-30T02:47:46.684Z,67.28
2022-07-30T02:50:15.205Z,66.82
2022-07-30T02:52:43.595Z,67.21
2022-07-30T02:55:12.295Z,67.57
2022-07-30T02:57:43.787Z,66.99
2022-07-30T03:00:14.076Z,67.80
2022-07-30T03:02:45.287Z,67.19
2022-07-30T03:05:14.987Z,67.43
2022-07-30T03:07:43.349Z,68.19
2022-07-30T03:10:12.916Z,68.83
2022-07-30T03:12:41.785Z,67.76
2022-07-30T03:15:10.768Z,67.19
2022-07-30T03:17:43.689Z,67.82
2022-07-30T03:20:14.611Z,67.63
2022-07-30T03:22:45.258Z,67.26
2022-07-30T03:25:15.290Z,66.86
2022-07-30T03:27:43.966Z,68.91
2022-07-30T03:30:12.213Z,70.51
2022-07-30T03:32:42.874Z,70.56
2022-07-30T03:35:16.978Z,70.92
2022-07-30T03:37:46.014Z,70.91
2022-07-30T03:40:15.229Z,71.58
2022-07-30T03:42:43.453Z,72.17
2022-07-30T03:45:13.586Z,71.84
2022-07-30T03:47:44.347Z,72.54
2022-07-30T03:50:13.277Z,72.92
2022-07-30T03:52:42.153Z,71.88
2022-07-30T03:55:11.738Z,73.16
2022-07-30T03:57:39.639Z,73.17
2022-07-30T04:00:09.230Z,73.55
2022-07-30T04:02:43.403Z,73.86
2022-07-30T04:05:12.457Z,74.90
2022-07-30T04:07:44.719Z,75.16
2022-07-30T04:10:13.828Z,74.89
2022-07-30T04:12:41.595Z,73.11
2022-07-30T04:16:38.078Z,74.01
2022-07-30T04:18:05.596Z,74.21
2022-07-30T04:20:35.963Z,73.91
2022-07-30T04:23:04.119Z,73.80
2022-07-30T04:25:32.689Z,73.77
2022-07-30T04:28:03.744Z,73.36
2022-07-30T04:30:33.216Z,72.85
2022-07-30T04:33:03.164Z,73.80
2022-07-30T04:35:50.612Z,73.13
2022-07-30T04:38:20.364Z,73.14
2022-07-30T04:40:49.304Z,72.34
2022-07-30T04:43:17.485Z,72.72
2022-07-30T04:45:45.245Z,71.62
2022-07-30T04:48:14.316Z,71.85
2022-07-30T04:50:43.859Z,71.38
2022-07-30T04:53:12.425Z,70.41
2022-07-30T04:55:43.103Z,70.63
2022-07-30T04:58:11.918Z,72.09
2022-07-30T05:00:41.443Z,70.85
2022-07-30T05:03:09.684Z,70.00
2022-07-30T05:05:38.782Z,70.31
2022-07-30T05:08:06.630Z,70.01
2022-07-30T05:10:34.456Z,69.17
2022-07-30T05:13:03.034Z,69.44
2022-07-30T05:15:36.275Z,69.62
2022-07-30T05:18:05.341Z,69.26
2022-07-30T05:20:33.023Z,69.76
2022-07-30T05:23:03.996Z,69.39
2022-07-30T05:25:31.729Z,69.15
2022-07-30T05:27:59.429Z,69.68
2022-07-30T05:30:27.460Z,70.38
2022-07-30T05:32:56.033Z,69.13
2022-07-30T05:35:24.047Z,69.67
2022-07-30T05:37:51.808Z,68.81
2022-07-30T05:40:20.897Z,69.28
2022-07-30T05:42:48.601Z,69.55
2022-07-30T05:45:16.313Z,69.15
2022-07-30T05:47:44.127Z,68.57
2022-07-30T05:50:12.612Z,69.94
2022-07-30T05:52:40.402Z,69.04
2022-07-30T05:55:09.934Z,68.97
2022-07-30T05:57:42.023Z,70.13
2022-07-30T06:00:11.458Z,68.79
2022-07-30T06:02:40.621Z,68.61
2022-07-30T06:05:09.326Z,68.80
2022-07-30T06:07:38.400Z,69.47
2022-07-30T06:10:07.004Z,68.82
2022-07-30T06:12:34.901Z,68.90
2022-07-30T06:15:04.133Z,68.96
2022-07-30T06:17:32.261Z,68.53
2022-07-30T06:20:11.181Z,68.51
2022-07-30T06:22:39.412Z,68.80
2022-07-30T06:25:09.071Z,67.72
2022-07-30T06:27:39.761Z,68.96
2022-07-30T06:30:12.061Z,69.04
2022-07-30T06:32:40.037Z,68.43
2022-07-30T06:35:09.156Z,68.14
2022-07-30T06:37:58.652Z,68.07
2022-07-30T06:40:25.387Z,68.23
2022-07-30T06:42:53.118Z,68.35
2022-07-30T06:45:22.930Z,67.76
2022-07-30T06:47:51.373Z,67.65
2022-07-30T06:50:20.438Z,68.27
2022-07-30T06:52:48.277Z,67.76
2022-07-30T06:55:16.015Z,68.10
2022-07-30T06:57:43.744Z,68.72
2022-07-30T07:00:13.255Z,69.42
2022-07-30T07:02:43.301Z,68.66
2022-07-30T07:05:11.657Z,69.60
2022-07-30T07:07:43.123Z,70.08
2022-07-30T07:10:14.211Z,69.99
2022-07-30T07:12:41.950Z,70.08
2022-07-30T07:15:10.645Z,69.96
2022-07-30T07:17:40.321Z,69.95
2022-07-30T07:20:10.618Z,70.60
2022-07-30T07:22:38.390Z,70.61
2022-07-30T07:25:07.123Z,70.95
2022-07-30T07:27:34.849Z,72.62
2022-07-30T07:30:05.396Z,73.68
2022-07-30T07:32:34.205Z,75.98
2022-07-30T07:35:01.934Z,75.05
2022-07-30T07:37:31.098Z,77.62
2022-07-30T07:39:59.722Z,75.44
2022-07-30T07:42:27.485Z,75.52
2022-07-30T07:44:55.205Z,75.25
2022-07-30T07:47:22.911Z,74.28
2022-07-30T07:49:50.599Z,74.53
2022-07-30T07:52:18.328Z,73.68
2022-07-30T07:54:47.465Z,73.46
2022-07-30T07:57:15.493Z,74.21
2022-07-30T07:59:43.358Z,75.49
2022-07-30T08:02:11.187Z,76.01
2022-07-30T08:04:39.144Z,75.07
2022-07-30T08:07:07.547Z,76.04
2022-07-30T08:09:43.520Z,76.43
2022-07-30T08:12:14.121Z,76.86
2022-07-30T08:14:41.938Z,77.98
2022-07-30T08:17:09.967Z,77.01
2022-07-30T08:19:37.706Z,76.16
2022-07-30T08:22:05.442Z,76.03
2022-07-30T08:24:33.610Z,75.60
2022-07-30T08:27:03.539Z,75.98
2022-07-30T08:29:32.999Z,75.41
2022-07-30T08:32:00.989Z,75.57
2022-07-30T08:34:29.267Z,75.10
2022-07-30T08:36:57.081Z,73.46
2022-07-30T08:39:24.831Z,73.59
2022-07-30T08:41:52.743Z,72.33
2022-07-30T08:44:21.751Z,73.62
2022-07-30T08:46:53.326Z,73.08
2022-07-30T08:49:21.064Z,73.30
2022-07-30T08:51:49.306Z,72.83
2022-07-30T08:54:17.604Z,72.03
2022-07-30T08:56:45.768Z,71.91
2022-07-30T08:59:13.761Z,72.26
2022-07-30T09:01:41.484Z,72.40
2022-07-30T09:04:11.105Z,72.78
2022-07-30T09:06:40.761Z,72.35
2022-07-30T09:09:08.544Z,71.84
2022-07-30T09:11:36.683Z,71.51
2022-07-30T09:14:09.324Z,72.06
2022-07-30T09:16:37.206Z,72.01
2022-07-30T09:19:14.827Z,71.19
2022-07-30T09:21:42.615Z,71.21
2022-07-30T09:24:13.024Z,70.44
2022-07-30T09:26:55.436Z,70.56
2022-07-30T09:29:24.620Z,70.17
2022-07-30T09:31:56.801Z,69.96
2022-07-30T09:34:27.220Z,69.40
2022-07-30T09:36:55.953Z,69.12
2022-07-30T09:39:33.678Z,68.73
2022-07-30T09:42:04.318Z,68.32
2022-07-30T09:44:32.551Z,67.70
2022-07-30T09:47:03.440Z,68.02
2022-07-30T09:49:32.894Z,67.64
2022-07-30T09:52:00.831Z,68.10
2022-07-30T09:57:35.193Z,67.47
2022-07-30T10:00:18.725Z,67.70
2022-07-30T10:02:47.727Z,66.52
2022-07-30T10:05:19.267Z,66.33
2022-07-30T10:07:51.237Z,66.40
2022-07-30T10:10:20.863Z,65.58
2022-07-30T10:12:49.855Z,66.59
2022-07-30T10:15:20.507Z,66.17
2022-07-30T10:17:48.789Z,66.57
2022-07-30T10:20:18.369Z,66.99
2022-07-30T10:22:48.009Z,66.34
2022-07-30T10:25:19.416Z,66.04
2022-07-30T10:27:49.177Z,65.01
2022-07-30T10:30:17.359Z,65.67
2022-07-30T10:32:47.634Z,64.16
2022-07-30T10:35:34.819Z,64.29
2022-07-30T10:38:08.554Z,63.96
2022-07-30T10:40:39.835Z,64.72
2022-07-30T10:43:37.360Z,63.33
2022-07-30T10:46:19.814Z,63.43
2022-07-30T10:48:51.105Z,63.11
2022-07-30T10:51:34.585Z,63.62
2022-07-30T10:54:02.570Z,63.25
2022-07-30T10:56:30.338Z,63.17
2022-07-30T10:58:59.492Z,63.21
2022-07-30T11:02:09.431Z,61.85
2022-07-30T11:04:37.834Z,62.58
2022-07-30T11:07:31.218Z,63.43
2022-07-30T11:10:09.095Z,64.47
2022-07-30T11:12:54.505Z,63.86
2022-07-30T11:15:22.600Z,64.29
2022-07-30T11:18:04.373Z,63.84
2022-07-30T11:20:32.983Z,63.45
2022-07-30T11:23:14.198Z,63.92
2022-07-30T11:25:51.934Z,62.64
2022-07-30T11:28:37.600Z,62.75
2022-07-30T11:31:55.783Z,62.00
2022-07-30T11:34:29.820Z,61.90
2022-07-30T11:37:18.891Z,62.11
2022-07-30T11:40:13.927Z,62.13
2022-07-30T11:42:43.446Z,61.41
2022-07-30T11:45:23.193Z,61.73
2022-07-30T11:47:52.923Z,61.77
2022-07-30T11:50:21.208Z,60.80
2022-07-30T11:52:51.800Z,60.06
2022-07-30T11:55:30.164Z,60.44
2022-07-30T11:57:58.825Z,60.55
2022-07-30T12:00:27.255Z,60.58
2022-07-30T12:02:54.975Z,58.95
2022-07-30T12:05:26.695Z,59.90
2022-07-30T12:07:59.345Z,59.57
2022-07-30T12:10:28.447Z,59.46
2022-07-30T12:13:08.121Z,58.55
2022-07-30T12:15:37.389Z,57.88
2022-07-30T12:18:25.275Z,57.43
2022-07-30T12:20:57.790Z,57.97
2022-07-30T12:23:27.996Z,58.12
2022-07-30T12:25:57.431Z,57.76
2022-07-30T12:28:27.384Z,57.70
2022-07-30T12:30:56.062Z,56.81
2022-07-30T12:33:24.476Z,57.04
2022-07-30T12:35:53.796Z,57.54
2022-07-30T12:38:23.032Z,57.18
2022-07-30T12:40:55.372Z,57.62
2022-07-30T12:43:46.779Z,57.67
2022-07-30T12:46:16.228Z,57.86
2022-07-30T12:48:58.106Z,58.17
2022-07-30T12:51:32.493Z,57.33
2022-07-30T12:54:19.350Z,57.54
2022-07-30T12:56:59.134Z,57.43
2022-07-30T12:59:28.884Z,56.88
2022-07-30T13:02:00.105Z,57.41
2022-07-30T13:04:31.465Z,57.63
2022-07-30T13:07:07.038Z,56.90
2022-07-30T13:09:35.168Z,57.46
2022-07-30T13:12:03.020Z,57.19
2022-07-30T13:14:32.262Z,57.35
2022-07-30T13:17:00.460Z,57.12
2022-07-30T13:19:28.936Z,56.94
2022-07-30T13:21:56.652Z,56.32
2022-07-30T13:24:24.453Z,56.59
2022-07-30T13:26:52.307Z,56.79
2022-07-30T13:29:20.042Z,56.54
2022-07-30T13:31:49.170Z,57.18
2022-07-30T13:34:16.873Z,56.85
2022-07-30T13:36:44.717Z,56.66
2022-07-30T13:39:12.907Z,57.80
2022-07-30T13:41:41.699Z,57.40
2022-07-30T13:44:09.462Z,57.35
2022-07-30T13:46:39.748Z,57.08
2022-07-30T13:49:10.780Z,56.57
2022-07-30T13:51:38.879Z,56.67
2022-07-30T13:54:07.254Z,56.50
2022-07-30T13:56:35.038Z,56.45
2022-07-30T13:59:08.841Z,56.45
2022-07-30T14:01:37.755Z,56.30
2022-07-30T14:04:06.548Z,56.47
2022-07-30T14:06:35.589Z,56.70
2022-07-30T14:09:07.782Z,56.02
2022-07-30T14:11:35.846Z,56.35
2022-07-30T14:14:05.055Z,57.01
2022-07-30T14:16:45.123Z,56.57
2022-07-30T14:19:24.083Z,56.26
2022-07-30T14:21:54.374Z,56.03
2022-07-30T14:24:22.382Z,56.45
2022-07-30T14:26:55.866Z,56.94
2022-07-30T14:29:25.994Z,56.61
2022-07-30T14:31:53.740Z,56.67
2022-07-30T14:34:21.585Z,57.08
2022-07-30T14:36:49.290Z,56.58
2022-07-30T14:39:18.381Z,56.26
2022-07-30T14:41:46.127Z,56.69
2022-07-30T14:44:13.880Z,56.57
2022-07-30T14:46:52.245Z,56.00
2022-07-30T14:49:20.905Z,55.54
2022-07-30T14:51:48.821Z,55.78
2022-07-30T14:54:17.932Z,55.52
2022-07-30T14:56:45.750Z,55.54
2022-07-30T14:59:13.640Z,55.66
2022-07-30T15:01:42.157Z,55.51
2022-07-30T15:04:11.411Z,55.85
2022-07-30T15:06:40.686Z,55.70
2022-07-30T15:09:08.829Z,56.18
2022-07-30T15:11:56.663Z,56.51
2022-07-30T15:14:26.873Z,56.31
2022-07-30T15:16:59.392Z,55.87
2022-07-30T15:19:33.975Z,55.71
2022-07-30T15:22:03.039Z,55.65
2022-07-30T15:24:31.514Z,55.50
2022-07-30T15:27:01.281Z,55.84
2022-07-30T15:29:30.093Z,55.59
2022-07-30T15:31:59.911Z,54.85
2022-07-30T15:34:33.894Z,55.65
2022-07-30T15:37:03.556Z,56.37
2022-07-30T15:39:33.521Z,56.03
2022-07-30T15:42:04.263Z,56.04
2022-07-30T15:44:32.227Z,56.91
2022-07-30T15:46:59.996Z,57.03
2022-07-30T15:49:28.781Z,57.16
2022-07-30T15:51:57.381Z,57.24
2022-07-30T15:54:25.153Z,56.93
2022-07-30T15:56:54.647Z,57.38
2022-07-30T15:59:32.695Z,57.44
2022-07-30T16:02:00.691Z,57.72
2022-07-30T16:04:32.339Z,56.95
2022-07-30T16:07:00.845Z,57.09
2022-07-30T16:09:29.945Z,56.87
2022-07-30T16:11:58.157Z,57.30
2022-07-30T16:14:26.450Z,57.49
2022-07-30T16:16:55.597Z,56.86
2022-07-30T16:19:23.380Z,56.17
2022-07-30T16:21:51.126Z,55.20
2022-07-30T16:24:18.935Z,54.95
2022-07-30T16:26:46.784Z,55.00
2022-07-30T16:29:14.683Z,55.06
2022-07-30T16:31:43.648Z,57.60
2022-07-30T16:34:12.709Z,57.63
2022-07-30T16:36:40.545Z,64.27
2022-07-30T16:39:08.415Z,65.27
2022-07-30T16:41:36.318Z,64.89
2022-07-30T16:44:05.429Z,64.33
2022-07-30T16:46:33.132Z,63.18
2022-07-30T16:49:00.905Z,62.85
2022-07-30T16:51:31.225Z,64.12
2022-07-30T16:53:59.047Z,65.10
2022-07-30T16:56:26.887Z,65.81
2022-07-30T16:58:54.768Z,64.47
2022-07-30T17:01:22.575Z,64.90
2022-07-30T17:03:50.321Z,63.66
2022-07-30T17:06:18.081Z,64.56
2022-07-30T17:08:47.291Z,64.58
2022-07-30T17:11:46.111Z,64.54
2022-07-30T17:14:04.742Z,65.09
2022-07-30T17:16:32.566Z,66.52
2022-07-30T17:19:00.286Z,66.40
2022-07-30T17:21:37.837Z,66.37
2022-07-30T17:24:11.122Z,67.33
2022-07-30T17:26:41.657Z,68.33
2022-07-30T17:29:13.934Z,68.30
2022-07-30T17:31:43.875Z,69.01
2022-07-30T17:34:13.750Z,68.63
2022-07-30T17:36:42.880Z,69.11
2022-07-30T17:40:27.387Z,69.41
2022-07-30T17:42:09.754Z,69.68
2022-07-30T17:44:38.119Z,68.36
2022-07-30T17:47:07.964Z,68.52
2022-07-30T17:49:40.147Z,67.33
2022-07-30T17:52:08.655Z,67.35
2022-07-30T17:54:37.753Z,66.98
2022-07-30T17:57:05.590Z,66.42
2022-07-30T17:59:33.259Z,67.26
2022-07-30T18:02:04.161Z,66.57
2022-07-30T18:04:32.362Z,66.30
2022-07-30T18:07:00.357Z,65.75
2022-07-30T18:09:28.100Z,66.04
2022-07-30T18:11:57.209Z,66.07
2022-07-30T18:14:27.869Z,65.55
2022-07-30T18:16:56.593Z,64.68
2022-07-30T18:19:27.174Z,64.63
2022-07-30T18:21:55.591Z,64.87
2022-07-30T18:24:24.818Z,64.26
2022-07-30T18:26:52.872Z,65.04
2022-07-30T18:29:22.133Z,63.65
2022-07-30T18:31:49.912Z,63.84
2022-07-30T18:34:17.679Z,63.36
2022-07-30T18:36:45.888Z,63.27
2022-07-30T18:39:13.569Z,63.48
2022-07-30T18:41:41.317Z,63.96
2022-07-30T18:44:09.032Z,64.50
2022-07-30T18:46:38.080Z,63.95
2022-07-30T18:49:21.160Z,63.59
2022-07-30T18:51:53.524Z,64.90
2022-07-30T18:54:21.371Z,64.14
2022-07-30T18:56:49.088Z,64.39
2022-07-30T18:59:16.933Z,63.83
2022-07-30T19:01:46.035Z,64.50
2022-07-30T19:04:13.780Z,63.87
2022-07-30T19:06:41.733Z,64.43
2022-07-30T19:09:17.378Z,63.93
2022-07-30T19:11:46.095Z,63.68
2022-07-30T19:14:14.554Z,63.89
2022-07-30T19:16:42.907Z,64.27
2022-07-30T19:19:13.539Z,64.19
2022-07-30T19:21:41.513Z,64.38
2022-07-30T19:24:09.980Z,64.10
2022-07-30T19:26:39.529Z,63.67
2022-07-30T19:29:08.067Z,64.49
2022-07-30T19:31:36.183Z,64.34
2022-07-30T19:34:06.962Z,64.92
2022-07-30T19:36:36.192Z,64.29
2022-07-30T19:39:07.164Z,64.37
2022-07-30T19:41:40.319Z,64.98
2022-07-30T19:44:08.199Z,65.00
2022-07-30T19:46:37.272Z,65.14
2022-07-30T19:52:10.379Z,65.24
2022-07-30T19:54:42.300Z,65.90
2022-07-30T19:57:10.111Z,65.53
2022-07-30T19:59:46.339Z,65.24
2022-07-30T20:02:25.760Z,65.44
2022-07-30T20:04:54.577Z,65.05
2022-07-30T20:10:11.908Z,66.35
2022-07-30T20:12:42.205Z,65.64
2022-07-30T20:15:14.637Z,65.55
2022-07-30T20:17:42.618Z,66.85
2022-07-30T20:20:11.608Z,66.03
2022-07-30T20:22:40.712Z,66.02
2022-07-30T20:25:09.747Z,67.06
2022-07-30T20:27:38.911Z,66.51
2022-07-30T20:30:08.781Z,66.44
2022-07-30T20:32:36.680Z,66.13
2022-07-30T20:35:05.855Z,65.58
2022-07-30T20:37:33.570Z,65.36
2022-07-30T20:40:23.196Z,65.65
2022-07-30T20:42:50.996Z,65.81
2022-07-30T20:45:18.688Z,65.48
2022-07-30T20:47:56.590Z,65.10
2022-07-30T20:50:30.395Z,65.97
2022-07-30T20:52:58.876Z,67.26
2022-07-30T20:55:28.989Z,67.32
2022-07-30T20:58:09.961Z,68.35
2022-07-30T21:00:49.956Z,67.76
2022-07-30T21:03:19.001Z,67.63
2022-07-30T21:05:52.412Z,68.12
2022-07-30T21:08:21.182Z,67.82
2022-07-30T21:10:55.193Z,67.88
2022-07-30T21:13:25.001Z,66.60
2022-07-30T21:16:02.511Z,66.86
2022-07-30T21:18:31.678Z,66.06
2022-07-30T21:21:04.914Z,66.07
2022-07-30T21:23:33.775Z,66.35
2022-07-30T21:26:10.482Z,65.63
2022-07-30T21:28:41.266Z,66.19
2022-07-30T21:31:09.167Z,65.82
2022-07-30T21:33:37.179Z,66.26
2022-07-30T21:36:05.459Z,67.01
2022-07-30T21:38:41.894Z,67.26
2022-07-30T21:41:15.123Z,66.73
2022-07-30T21:43:44.104Z,66.66
2022-07-30T21:46:12.102Z,66.13
2022-07-30T21:48:40.148Z,67.24
2022-07-30T21:51:09.395Z,66.48
2022-07-30T21:53:46.296Z,68.59
2022-07-30T21:56:16.316Z,68.31
2022-07-30T21:58:44.752Z,67.94
2022-07-30T22:01:17.884Z,68.37
2022-07-30T22:04:03.494Z,69.94
2022-07-30T22:06:34.832Z,69.28
2022-07-30T22:09:08.541Z,69.19
2022-07-30T22:11:48.099Z,69.66
2022-07-30T22:14:15.867Z,70.66
2022-07-30T22:16:46.095Z,70.56
2022-07-30T22:19:14.745Z,68.60
2022-07-30T22:21:42.922Z,69.34
2022-07-30T22:24:29.639Z,68.62
2022-07-30T22:27:01.658Z,68.12
2022-07-30T22:29:38.062Z,67.35
2022-07-30T22:32:07.836Z,67.24
2022-07-30T22:34:35.917Z,67.38
2022-07-30T22:37:04.148Z,67.93
2022-07-30T22:39:51.503Z,68.03
2022-07-30T22:42:24.038Z,68.45
2022-07-30T22:44:52.834Z,68.12
2022-07-30T22:50:09.345Z,68.68
2022-07-30T22:52:38.526Z,68.69
2022-07-30T22:55:08.961Z,68.61
2022-07-30T22:57:40.252Z,68.70
2022-07-30T23:00:12.039Z,68.57
2022-07-30T23:02:39.943Z,68.08
2022-07-30T23:05:08.571Z,68.22
2022-07-30T23:07:39.835Z,68.92
2022-07-30T23:10:18.242Z,70.10
2022-07-30T23:12:16.563Z,65.48
2022-07-30T23:12:16.712Z,65.67
2022-07-30T23:12:30.469Z,67.67
2022-07-30T23:12:48.927Z,69.53
2022-07-30T23:15:16.761Z,68.98
2022-07-30T23:17:44.955Z,68.98
2022-07-30T23:20:14.673Z,68.68
2022-07-30T23:22:42.800Z,68.70
2022-07-30T23:25:12.245Z,67.98
2022-07-30T23:27:40.699Z,68.24
2022-07-30T23:30:11.891Z,68.21
2022-07-30T23:32:40.193Z,67.98
2022-07-30T23:35:09.621Z,69.12
2022-07-30T23:37:48.361Z,68.33
2022-07-30T23:40:18.204Z,69.07
2022-07-30T23:42:46.076Z,68.51
2022-07-30T23:45:15.369Z,68.90
2022-07-30T23:48:00.916Z,69.04
2022-07-30T23:50:30.150Z,69.19
2022-07-30T23:52:58.209Z,69.31
2022-07-30T23:55:26.928Z,68.92
2022-07-30T23:57:54.723Z,68.75
